Time;durP1;ratioP1;P1;durP2;ratioP2;P2;SDS_P1;SDS_P2;PMS_P1;PMS_P2;Temp;Humidity;BMP_temperature;BMP_pressure;BME280_temperature;BME280_humidity;BME280_pressure;Samples;Min_cycle;Max_cycle;Signal;HPM_P1;HPM_P2
2022/01/18 00:00:28;;;;;;;9.30;5.53;;;7.40;99.90;;;;;;5053558;28;20181;-76
2022/01/18 00:02:55;;;;;;;9.97;5.60;;;7.40;99.90;;;;;;5035832;28;20227;-74
2022/01/18 00:05:21;;;;;;;11.63;6.23;;;7.40;99.90;;;;;;5052121;28;20306;-75
2022/01/18 00:07:48;;;;;;;9.23;5.50;;;7.50;99.90;;;;;;5018682;28;20189;-76
2022/01/18 00:10:14;;;;;;;10.93;5.73;;;7.40;99.90;;;;;;5052393;28;20169;-76
2022/01/18 00:18:22;;;;;;;9.63;6.00;;;7.40;99.90;;;;;;5037797;28;20211;-74
2022/01/18 00:23:21;;;;;;;10.00;5.47;;;7.50;99.90;;;;;;5053322;28;20165;-76
2022/01/18 00:25:52;;;;;;;8.67;5.63;;;7.30;99.90;;;;;;5038548;28;20195;-74
2022/01/18 00:28:18;;;;;;;7.57;5.00;;;7.40;99.90;;;;;;5028424;28;20181;-79
2022/01/18 00:33:19;;;;;;;9.67;5.73;;;7.40;99.90;;;;;;5030827;28;20266;-73
2022/01/18 00:35:47;;;;;;;7.97;5.40;;;7.40;99.90;;;;;;5031492;28;20300;-77
2022/01/18 00:38:30;;;;;;;9.27;5.47;;;7.40;99.90;;;;;;5033222;28;20194;-76
2022/01/18 00:40:56;;;;;;;8.53;5.20;;;7.50;99.90;;;;;;5031305;28;20244;-75
2022/01/18 00:43:22;;;;;;;6.57;4.93;;;7.40;99.90;;;;;;5015030;28;20177;-74
2022/01/18 00:45:48;;;;;;;9.43;5.73;;;7.50;99.90;;;;;;5031499;28;20178;-73
2022/01/18 00:48:14;;;;;;;8.73;5.67;;;7.50;99.90;;;;;;5016095;28;20174;-77
2022/01/18 00:50:40;;;;;;;8.63;5.90;;;7.50;99.90;;;;;;5015216;28;20188;-77
2022/01/18 00:53:10;;;;;;;9.07;5.47;;;7.40;99.90;;;;;;5031664;28;20189;-73
2022/01/18 00:55:47;;;;;;;9.80;5.83;;;7.50;99.90;;;;;;5050708;28;20227;-76
2022/01/18 00:58:14;;;;;;;9.13;5.83;;;7.40;99.90;;;;;;5019436;28;20259;-76
2022/01/18 01:00:40;;;;;;;9.63;6.43;;;7.40;99.90;;;;;;5034429;28;20173;-76
2022/01/18 01:03:06;;;;;;;10.33;5.97;;;7.70;99.90;;;;;;5050908;28;20199;-76
2022/01/18 01:05:32;;;;;;;8.47;5.47;;;7.50;99.90;;;;;;5041713;28;20185;-74
2022/01/18 01:07:57;;;;;;;9.37;5.87;;;7.60;99.90;;;;;;5034753;28;20178;-74
2022/01/18 01:10:24;;;;;;;8.70;5.77;;;7.50;99.90;;;;;;5041282;28;20273;-73
2022/01/18 01:12:50;;;;;;;9.80;5.67;;;7.40;99.90;;;;;;5014505;28;20192;-74
2022/01/18 01:15:19;;;;;;;8.73;5.90;;;7.50;99.90;;;;;;5014300;28;20202;-74
2022/01/18 01:34:42;;;;;;;10.57;6.20;;;7.30;99.90;;;;;;5050305;28;20223;-74
2022/01/18 01:44:51;;;;;;;10.67;6.40;;;7.50;99.90;;;;;;5030474;28;20170;-74
2022/01/18 01:47:21;;;;;;;11.63;7.00;;;7.50;99.90;;;;;;5030216;28;20659;-73
2022/01/18 01:49:50;;;;;;;10.50;6.57;;;7.50;99.90;;;;;;5013957;28;20173;-74
2022/01/18 01:52:19;;;;;;;11.20;7.07;;;7.50;99.90;;;;;;5040247;28;20168;-73
2022/01/18 01:54:45;;;;;;;9.03;6.23;;;7.60;99.90;;;;;;5033533;28;20283;-76
2022/01/18 01:57:11;;;;;;;11.80;6.87;;;7.40;99.90;;;;;;5051160;28;20268;-74
2022/01/18 01:59:38;;;;;;;13.93;7.23;;;7.40;99.90;;;;;;5049579;28;20239;-74
2022/01/18 02:02:04;;;;;;;10.87;6.53;;;7.40;99.90;;;;;;5051123;28;20188;-77
2022/01/18 02:04:30;;;;;;;11.80;6.57;;;7.40;99.90;;;;;;5034557;28;20298;-77
2022/01/18 02:06:56;;;;;;;9.70;6.47;;;7.40;99.90;;;;;;5050653;28;20810;-77
2022/01/18 02:09:22;;;;;;;11.93;7.13;;;7.40;99.90;;;;;;5018702;28;20293;-76
2022/01/18 02:11:49;;;;;;;12.13;7.40;;;7.00;99.90;;;;;;5049423;28;20178;-73
2022/01/18 02:14:20;;;;;;;13.93;6.90;;;7.00;99.90;;;;;;5000552;28;20181;-75
2022/01/18 02:22:26;;;;;;;10.97;7.40;;;7.20;99.90;;;;;;5031424;28;20192;-76
2022/01/18 02:24:52;;;;;;;10.47;7.03;;;6.90;99.90;;;;;;5040738;28;20185;-74
2022/01/18 02:27:18;;;;;;;11.73;7.00;;;6.80;99.90;;;;;;5027327;28;20187;-74
2022/01/18 02:29:44;;;;;;;12.43;7.40;;;6.90;99.90;;;;;;5028293;28;20170;-74
2022/01/18 02:32:10;;;;;;;12.17;7.27;;;7.00;99.90;;;;;;5012073;28;20174;-76
2022/01/18 02:34:36;;;;;;;10.80;7.03;;;7.10;99.90;;;;;;5028641;28;20551;-75
2022/01/18 02:37:04;;;;;;;11.60;6.80;;;7.10;99.90;;;;;;5029578;28;20166;-75
2022/01/18 02:39:30;;;;;;;11.93;7.10;;;7.30;99.90;;;;;;5012399;28;20209;-76
2022/01/18 02:42:04;;;;;;;10.13;6.40;;;7.20;99.90;;;;;;5029159;28;20170;-75
2022/01/18 02:44:32;;;;;;;16.27;8.00;;;7.20;99.90;;;;;;5048487;28;20172;-75
2022/01/18 02:46:59;;;;;;;13.57;7.17;;;6.90;99.90;;;;;;5049308;28;20189;-74
2022/01/18 02:49:26;;;;;;;11.70;7.57;;;7.10;99.90;;;;;;5032858;28;20294;-73
2022/01/18 02:51:52;;;;;;;12.70;7.30;;;7.10;99.90;;;;;;5050385;28;20168;-75
2022/01/18 02:54:19;;;;;;;13.83;7.77;;;7.20;99.90;;;;;;5050584;28;20169;-76
2022/01/18 02:56:48;;;;;;;11.27;7.27;;;7.20;99.90;;;;;;5049183;28;20184;-75
2022/01/18 03:04:26;;;;;;;11.97;7.57;;;7.30;99.90;;;;;;5049758;28;20165;-75
2022/01/18 03:06:52;;;;;;;17.63;9.50;;;7.20;99.90;;;;;;5051030;28;20176;-74
2022/01/18 03:09:18;;;;;;;12.83;8.03;;;7.10;99.90;;;;;;5032488;28;20664;-75
2022/01/18 03:11:44;;;;;;;13.03;7.93;;;7.30;99.90;;;;;;5032669;28;20177;-76
2022/01/18 03:14:10;;;;;;;14.90;7.57;;;7.20;99.90;;;;;;5032535;28;20177;-76
2022/01/18 03:16:36;;;;;;;12.57;7.83;;;7.20;99.90;;;;;;5045613;28;20198;-74
2022/01/18 03:19:02;;;;;;;12.83;7.43;;;7.20;99.90;;;;;;4996421;28;20231;-74
2022/01/18 03:21:28;;;;;;;14.73;7.77;;;7.20;99.90;;;;;;5012596;28;20170;-75
2022/01/18 03:24:10;;;;;;;13.00;7.63;;;7.20;99.90;;;;;;5012529;28;20174;-74
2022/01/18 03:28:04;;;;;;;14.83;7.83;;;7.20;99.90;;;;;;4998137;28;20185;-74
2022/01/18 03:29:23;;;;;;;13.67;8.03;;;7.20;99.90;;;;;;5030173;28;20692;-74
2022/01/18 03:31:49;;;;;;;10.70;6.93;;;7.10;99.90;;;;;;5028888;28;20181;-75
2022/01/18 03:34:14;;;;;;;12.27;7.47;;;7.10;99.90;;;;;;5012690;28;20179;-73
2022/01/18 03:36:40;;;;;;;14.00;8.20;;;7.10;99.90;;;;;;5028743;28;20261;-74
2022/01/18 03:39:06;;;;;;;11.97;7.30;;;7.10;99.90;;;;;;5030305;28;20206;-74
2022/01/18 03:41:32;;;;;;;12.20;7.80;;;7.20;99.90;;;;;;4996099;28;20174;-77
2022/01/18 03:43:58;;;;;;;12.80;7.97;;;7.10;99.90;;;;;;4996372;28;20189;-74
2022/01/18 03:46:24;;;;;;;13.27;8.07;;;7.20;99.90;;;;;;5012103;28;20732;-74
2022/01/18 03:48:51;;;;;;;14.20;7.73;;;7.20;99.90;;;;;;5030275;28;20184;-76
2022/01/18 03:51:18;;;;;;;14.67;8.20;;;7.20;99.90;;;;;;5029271;28;20192;-76
2022/01/18 03:53:44;;;;;;;14.50;8.33;;;7.10;99.90;;;;;;5030399;28;20249;-74
2022/01/18 03:56:11;;;;;;;14.67;8.23;;;6.80;99.90;;;;;;4997925;28;20174;-75
2022/01/18 03:58:37;;;;;;;15.60;7.93;;;7.00;99.90;;;;;;5030475;28;20636;-74
2022/01/18 04:01:03;;;;;;;14.93;8.87;;;7.00;99.90;;;;;;5018726;28;20170;-77
2022/01/18 04:03:29;;;;;;;12.70;8.03;;;7.00;99.90;;;;;;5051408;28;20181;-74
2022/01/18 04:05:56;;;;;;;14.93;8.57;;;7.20;99.90;;;;;;5051662;28;20169;-76
2022/01/18 04:08:23;;;;;;;14.30;8.60;;;7.20;99.90;;;;;;5053358;28;20555;-74
2022/01/18 04:10:49;;;;;;;15.40;9.07;;;7.10;99.90;;;;;;5052661;28;20260;-75
2022/01/18 04:13:15;;;;;;;13.50;8.33;;;6.80;99.90;;;;;;5034634;28;20177;-75
2022/01/18 04:15:41;;;;;;;14.53;8.47;;;7.00;99.90;;;;;;5034940;28;20208;-74
2022/01/18 04:18:25;;;;;;;12.87;8.60;;;7.10;99.90;;;;;;5051083;28;20205;-74
2022/01/18 04:28:56;;;;;;;13.23;7.93;;;7.30;99.90;;;;;;5018310;28;20173;-76
2022/01/18 04:31:24;;;;;;;14.97;8.50;;;7.20;99.90;;;;;;5049324;28;20515;-76
2022/01/18 04:33:50;;;;;;;17.23;10.17;;;7.30;99.90;;;;;;5049607;28;20176;-76
2022/01/18 04:36:16;;;;;;;13.13;8.37;;;7.30;99.90;;;;;;5047327;28;20196;-76
2022/01/18 04:38:42;;;;;;;14.17;7.80;;;7.20;99.90;;;;;;5029519;28;20201;-74
2022/01/18 04:41:12;;;;;;;15.23;8.30;;;7.20;99.90;;;;;;5029835;28;20640;-74
2022/01/18 04:49:11;;;;;;;12.63;7.87;;;7.20;99.90;;;;;;5033326;28;20185;-76
2022/01/18 04:51:37;;;;;;;18.43;9.20;;;7.30;99.90;;;;;;5032225;28;20264;-74
2022/01/18 04:54:06;;;;;;;15.13;8.33;;;7.20;99.90;;;;;;5014302;28;20178;-74
2022/01/18 04:59:07;;;;;;;19.53;10.20;;;7.40;99.90;;;;;;5031058;28;20235;-76
2022/01/18 05:01:33;;;;;;;17.00;8.33;;;7.20;99.90;;;;;;5031833;28;20191;-76
2022/01/18 05:04:00;;;;;;;15.70;9.47;;;7.20;99.90;;;;;;5014258;28;20166;-76
2022/01/18 05:06:25;;;;;;;15.43;9.33;;;7.20;99.90;;;;;;5022379;28;20177;-72
2022/01/18 05:08:52;;;;;;;19.07;9.17;;;7.20;99.90;;;;;;5049653;28;20367;-75
2022/01/18 05:11:20;;;;;;;14.53;8.40;;;7.20;99.90;;;;;;5050073;28;20177;-74
2022/01/18 05:16:41;;;;;;;18.77;10.00;;;7.30;99.90;;;;;;5035048;28;20780;-74
2022/01/18 05:24:30;;;;;;;15.17;9.00;;;7.20;99.90;;;;;;5036177;28;20184;-75
2022/01/18 05:26:57;;;;;;;17.23;9.47;;;7.10;99.90;;;;;;5049971;28;20173;-74
2022/01/18 05:29:23;;;;;;;15.50;8.63;;;7.10;99.90;;;;;;5033535;28;20177;-76
2022/01/18 05:31:49;;;;;;;17.77;9.90;;;7.10;99.90;;;;;;5033833;28;20211;-76
2022/01/18 05:34:16;;;;;;;17.27;10.03;;;7.20;99.90;;;;;;5034624;28;20642;-75
2022/01/18 05:36:41;;;;;;;16.23;9.33;;;7.20;99.90;;;;;;5049837;28;20215;-75
2022/01/18 05:39:09;;;;;;;15.27;9.43;;;7.10;99.90;;;;;;5016846;28;20228;-76
2022/01/18 05:41:39;;;;;;;16.03;9.47;;;7.10;99.90;;;;;;5032946;28;20545;-76
2022/01/18 05:44:06;;;;;;;14.97;9.30;;;7.20;99.90;;;;;;5050071;28;20542;-77
2022/01/18 05:46:31;;;;;;;16.83;10.20;;;7.30;99.90;;;;;;5051384;28;20184;-75
2022/01/18 05:49:00;;;;;;;18.53;10.37;;;7.10;99.90;;;;;;5033728;28;20181;-76
2022/01/18 05:51:31;;;;;;;17.07;9.70;;;7.10;99.90;;;;;;5051034;28;20185;-74
2022/01/18 05:53:57;;;;;;;19.53;9.57;;;7.20;99.90;;;;;;5050957;28;20183;-74
2022/01/18 05:56:23;;;;;;;15.67;9.70;;;7.20;99.90;;;;;;5049103;28;20185;-75
2022/01/18 05:58:51;;;;;;;15.17;9.73;;;7.10;99.90;;;;;;5022080;28;20213;-77
2022/01/18 06:01:32;;;;;;;15.70;9.60;;;7.00;99.90;;;;;;5051629;28;20237;-73
2022/01/18 06:09:08;;;;;;;15.70;9.40;;;7.10;99.90;;;;;;5049870;28;20264;-77
2022/01/18 06:11:34;;;;;;;18.17;9.63;;;7.10;99.90;;;;;;5016251;28;20184;-74
2022/01/18 06:14:00;;;;;;;17.87;9.57;;;7.00;99.90;;;;;;5044234;28;20184;-74
2022/01/18 06:16:26;;;;;;;19.20;10.70;;;7.10;99.90;;;;;;5014403;28;20743;-76
2022/01/18 06:18:53;;;;;;;18.07;10.10;;;7.00;99.90;;;;;;5032832;28;20274;-76
2022/01/18 06:21:20;;;;;;;19.03;9.80;;;7.00;99.90;;;;;;5032376;28;20170;-77
2022/01/18 06:23:45;;;;;;;18.10;9.80;;;7.00;99.90;;;;;;5032221;28;20303;-76
2022/01/18 06:26:15;;;;;;;14.17;9.20;;;7.00;99.90;;;;;;5032472;28;20177;-76
2022/01/18 06:28:44;;;;;;;19.47;10.20;;;7.10;99.90;;;;;;5060637;28;20191;-77
2022/01/18 06:31:10;;;;;;;18.97;9.77;;;7.00;99.90;;;;;;5035804;28;20185;-73
2022/01/18 06:33:36;;;;;;;17.20;8.73;;;7.00;99.90;;;;;;5014743;28;20177;-76
2022/01/18 06:36:02;;;;;;;17.23;10.27;;;7.00;99.90;;;;;;5030360;28;20695;-76
2022/01/18 06:38:28;;;;;;;20.67;10.13;;;7.00;99.90;;;;;;5049491;28;20288;-74
2022/01/18 06:40:54;;;;;;;20.43;11.03;;;7.00;99.90;;;;;;5048802;28;20249;-76
2022/01/18 06:43:20;;;;;;;19.47;10.10;;;6.90;99.90;;;;;;5048177;28;20169;-77
2022/01/18 06:45:46;;;;;;;19.20;10.93;;;6.90;99.90;;;;;;5044359;28;20178;-77
2022/01/18 06:48:12;;;;;;;16.13;9.87;;;7.00;99.90;;;;;;5012989;28;20182;-77
2022/01/18 06:50:38;;;;;;;23.10;11.30;;;7.10;99.90;;;;;;5015519;28;20199;-78
2022/01/18 06:53:04;;;;;;;18.23;9.77;;;7.10;99.90;;;;;;5013938;28;20186;-75
2022/01/18 06:55:30;;;;;;;20.20;10.03;;;7.00;99.90;;;;;;5028124;28;20173;-77
2022/01/18 06:57:56;;;;;;;20.73;11.33;;;7.00;99.90;;;;;;5033136;28;20194;-75
2022/01/18 07:00:22;;;;;;;19.07;10.33;;;7.00;99.90;;;;;;5031521;28;20596;-76
2022/01/18 07:02:48;;;;;;;22.50;10.67;;;6.90;99.90;;;;;;5032203;28;20189;-73
2022/01/18 07:05:14;;;;;;;18.53;10.60;;;6.90;99.90;;;;;;5025504;28;20169;-74
2022/01/18 07:07:43;;;;;;;17.37;10.17;;;7.00;99.90;;;;;;5039574;28;20637;-76
2022/01/18 07:10:10;;;;;;;19.40;9.33;;;6.90;99.90;;;;;;5031931;28;20174;-75
2022/01/18 07:12:36;;;;;;;18.10;10.47;;;6.90;99.90;;;;;;5033423;28;20231;-74
2022/01/18 07:15:06;;;;;;;21.37;11.33;;;7.10;99.90;;;;;;5027999;28;20336;-78
2022/01/18 07:17:31;;;;;;;19.87;11.23;;;7.00;99.90;;;;;;5038876;28;20195;-74
2022/01/18 07:19:57;;;;;;;18.30;10.63;;;7.00;99.90;;;;;;5049995;28;20205;-75
2022/01/18 07:22:23;;;;;;;18.20;10.17;;;7.00;99.90;;;;;;5017313;28;20173;-77
2022/01/18 07:24:51;;;;;;;18.17;9.93;;;7.00;99.90;;;;;;5049239;28;20174;-77
2022/01/18 07:27:17;;;;;;;18.57;10.13;;;6.90;99.90;;;;;;5050236;28;20275;-77
2022/01/18 07:29:43;;;;;;;16.40;9.90;;;7.00;99.90;;;;;;5022242;28;20592;-75
2022/01/18 07:32:10;;;;;;;19.83;9.87;;;7.10;99.90;;;;;;5015060;28;20178;-78
2022/01/18 07:34:41;;;;;;;20.43;10.43;;;7.10;99.90;;;;;;5032029;28;20909;-74
2022/01/18 07:37:09;;;;;;;18.47;10.73;;;7.00;99.90;;;;;;5033714;28;20176;-75
2022/01/18 07:39:35;;;;;;;15.43;9.13;;;7.00;99.90;;;;;;5016046;28;20578;-79
2022/01/18 07:42:01;;;;;;;17.67;10.30;;;7.00;99.90;;;;;;4999767;28;20178;-75
2022/01/18 07:44:27;;;;;;;19.37;10.20;;;7.00;99.90;;;;;;5015572;28;20257;-75
2022/01/18 07:46:53;;;;;;;17.40;9.17;;;7.10;99.90;;;;;;5033664;28;20287;-79
2022/01/18 07:49:18;;;;;;;20.20;11.00;;;7.00;99.90;;;;;;4999091;28;20810;-74
2022/01/18 07:51:44;;;;;;;20.20;10.57;;;7.00;99.90;;;;;;4999167;28;20707;-75
2022/01/18 07:54:10;;;;;;;20.60;10.97;;;7.00;99.90;;;;;;4999376;28;20645;-75
2022/01/18 07:56:41;;;;;;;17.83;10.33;;;7.00;99.90;;;;;;5015806;28;20192;-76
2022/01/18 07:59:08;;;;;;;23.10;10.60;;;7.10;99.90;;;;;;4999321;28;20258;-79
2022/01/18 08:01:34;;;;;;;18.20;10.93;;;7.20;99.90;;;;;;5032580;28;20174;-79
2022/01/18 08:04:00;;;;;;;20.13;11.47;;;7.10;99.90;;;;;;5015513;28;20220;-78
2022/01/18 08:06:25;;;;;;;18.90;11.07;;;7.20;99.90;;;;;;5023583;28;20238;-75
2022/01/18 08:08:53;;;;;;;21.83;11.10;;;7.30;99.90;;;;;;5034904;28;20227;-78
2022/01/18 08:11:18;;;;;;;22.73;11.33;;;7.10;99.90;;;;;;5051553;28;20188;-79
2022/01/18 08:13:48;;;;;;;18.13;10.13;;;7.10;99.90;;;;;;5032439;28;20636;-75
2022/01/18 08:18:54;;;;;;;18.80;10.80;;;7.30;99.90;;;;;;5032082;28;20315;-78
2022/01/18 08:21:20;;;;;;;16.23;8.93;;;7.10;99.90;;;;;;5030970;28;20515;-78
2022/01/18 08:23:46;;;;;;;21.07;9.80;;;7.00;99.90;;;;;;5031411;28;20174;-75
2022/01/18 08:26:12;;;;;;;18.43;10.13;;;7.00;99.90;;;;;;5014761;28;20584;-74
2022/01/18 08:28:41;;;;;;;19.50;10.03;;;7.00;99.90;;;;;;5057547;28;20192;-84
2022/01/18 08:31:07;;;;;;;18.27;10.63;;;7.10;99.90;;;;;;5065223;28;20192;-77
2022/01/18 08:33:33;;;;;;;18.73;10.23;;;7.10;99.90;;;;;;5050700;28;20520;-79
2022/01/18 08:36:03;;;;;;;16.27;9.60;;;7.20;99.90;;;;;;5016411;28;20184;-79
2022/01/18 08:38:29;;;;;;;18.87;9.97;;;7.20;99.90;;;;;;5033019;28;20295;-78
2022/01/18 08:40:56;;;;;;;20.57;10.17;;;7.20;99.90;;;;;;5048907;28;20664;-79
2022/01/18 08:43:22;;;;;;;17.70;9.93;;;7.20;99.90;;;;;;5033324;28;20174;-76
2022/01/18 08:45:49;;;;;;;18.50;10.70;;;7.20;99.90;;;;;;5034161;28;20200;-78
2022/01/18 08:48:24;;;;;;;15.50;9.83;;;7.20;99.90;;;;;;5053195;28;20172;-83
2022/01/18 08:50:53;;;;;;;18.10;9.87;;;7.30;99.90;;;;;;5035287;28;20540;-86
2022/01/18 08:53:26;;;;;;;16.67;9.97;;;7.10;99.90;;;;;;5034695;28;20268;-79
2022/01/18 08:55:53;;;;;;;15.60;9.67;;;7.20;99.90;;;;;;5051714;28;20177;-74
2022/01/18 08:58:21;;;;;;;18.17;9.53;;;7.40;99.90;;;;;;5033795;28;20632;-78
2022/01/18 09:00:47;;;;;;;16.50;9.30;;;7.50;99.90;;;;;;5034147;28;20181;-75
2022/01/18 09:03:13;;;;;;;19.20;10.13;;;7.60;99.90;;;;;;5050241;28;20169;-78
2022/01/18 09:05:39;;;;;;;15.33;9.63;;;7.50;99.90;;;;;;5050283;28;20180;-74
2022/01/18 09:08:11;;;;;;;15.97;10.17;;;7.70;99.90;;;;;;5016966;28;20180;-76
2022/01/18 09:10:37;;;;;;;16.97;9.73;;;7.60;99.90;;;;;;5050673;28;20181;-75
2022/01/18 09:13:03;;;;;;;18.37;10.27;;;7.70;99.90;;;;;;5050082;28;20170;-74
2022/01/18 09:15:32;;;;;;;15.57;9.63;;;7.60;99.90;;;;;;5030057;28;20624;-78
2022/01/18 09:17:58;;;;;;;15.97;9.63;;;7.60;99.90;;;;;;5008803;28;20185;-75
2022/01/18 09:20:24;;;;;;;19.30;10.83;;;7.60;99.90;;;;;;5013759;28;20177;-78
2022/01/18 09:22:52;;;;;;;19.20;10.70;;;7.60;99.90;;;;;;5013666;28;20289;-79
2022/01/18 09:25:26;;;;;;;20.63;10.23;;;7.60;99.90;;;;;;5046418;28;20186;-80
2022/01/18 09:27:54;;;;;;;17.03;10.57;;;7.40;99.90;;;;;;5030059;28;20664;-79
2022/01/18 09:30:21;;;;;;;16.27;9.27;;;7.60;99.90;;;;;;5030172;28;20178;-76
2022/01/18 09:32:47;;;;;;;19.40;10.13;;;7.70;99.90;;;;;;5031333;28;20200;-75
2022/01/18 09:35:17;;;;;;;18.77;10.73;;;7.80;99.90;;;;;;5029842;28;20201;-77
2022/01/18 09:37:43;;;;;;;17.37;11.17;;;8.00;99.90;;;;;;5029778;28;20716;-79
2022/01/18 09:40:10;;;;;;;20.97;10.40;;;8.10;99.90;;;;;;5029810;28;20580;-79
2022/01/18 09:42:40;;;;;;;22.10;10.27;;;8.00;99.90;;;;;;5013093;28;20549;-75
2022/01/18 09:45:09;;;;;;;19.60;10.83;;;7.90;99.90;;;;;;5029741;28;20251;-77
2022/01/18 09:47:37;;;;;;;16.93;9.80;;;7.80;99.90;;;;;;5013170;28;20589;-78
2022/01/18 09:50:05;;;;;;;17.53;10.03;;;7.70;99.90;;;;;;5029757;28;20257;-76
2022/01/18 09:52:31;;;;;;;17.23;9.30;;;7.60;99.90;;;;;;5013500;28;20597;-78
2022/01/18 09:54:57;;;;;;;15.10;8.47;;;7.50;99.90;;;;;;5012241;28;20182;-74
2022/01/18 09:57:23;;;;;;;14.60;8.53;;;7.50;99.90;;;;;;5012996;28;20198;-75
2022/01/18 09:59:49;;;;;;;16.67;8.97;;;7.50;99.90;;;;;;5030665;28;20201;-75
2022/01/18 10:02:14;;;;;;;17.20;8.97;;;7.50;99.90;;;;;;5029456;28;20169;-75
2022/01/18 10:04:45;;;;;;;20.93;9.17;;;7.70;99.90;;;;;;5012759;28;20182;-74
2022/01/18 10:07:11;;;;;;;15.37;9.43;;;7.50;99.90;;;;;;5016409;28;20184;-74
2022/01/18 10:09:39;;;;;;;16.13;8.97;;;7.40;99.90;;;;;;5032483;28;20174;-78
2022/01/18 10:12:13;;;;;;;16.43;9.03;;;7.20;99.90;;;;;;5032762;28;20284;-78
2022/01/18 10:14:53;;;;;;;17.13;9.17;;;7.40;99.90;;;;;;5031868;28;20660;-78
2022/01/18 10:17:34;;;;;;;15.93;8.20;;;7.60;99.90;;;;;;5049210;28;20176;-79
2022/01/18 10:20:18;;;;;;;9.90;6.60;;;7.70;99.90;;;;;;5049218;28;20196;-79
2022/01/18 10:22:49;;;;;;;13.87;6.47;;;7.70;99.90;;;;;;5033273;28;20564;-75
2022/01/18 10:25:16;;;;;;;10.77;6.10;;;7.60;99.90;;;;;;5016162;28;20207;-75
2022/01/18 10:27:42;;;;;;;14.53;7.10;;;7.90;99.90;;;;;;5027543;28;20196;-77
2022/01/18 10:30:15;;;;;;;13.70;7.17;;;7.80;99.90;;;;;;5051030;28;20196;-74
2022/01/18 10:32:42;;;;;;;14.10;7.30;;;7.80;99.90;;;;;;5051659;28;20535;-77
2022/01/18 10:35:10;;;;;;;14.37;7.43;;;7.80;99.90;;;;;;5051696;28;20180;-75
2022/01/18 10:37:43;;;;;;;14.97;8.37;;;7.50;99.90;;;;;;5051065;28;20275;-78
2022/01/18 10:40:16;;;;;;;13.57;7.93;;;7.60;99.90;;;;;;5036226;28;20196;-79
2022/01/18 10:42:51;;;;;;;15.83;8.57;;;7.60;99.90;;;;;;5035136;28;20177;-78
2022/01/18 10:45:28;;;;;;;17.27;8.60;;;7.70;99.90;;;;;;5051712;28;20168;-75
2022/01/18 10:48:13;;;;;;;13.90;8.70;;;7.70;99.90;;;;;;5068188;28;20176;-76
2022/01/18 10:50:43;;;;;;;20.73;9.70;;;7.70;99.90;;;;;;5068618;28;20179;-75
2022/01/18 10:53:21;;;;;;;20.27;9.63;;;7.70;99.90;;;;;;5069702;28;20165;-75
2022/01/18 10:55:50;;;;;;;19.37;9.13;;;7.70;99.90;;;;;;5069909;28;20251;-78
2022/01/18 10:58:20;;;;;;;19.77;11.07;;;7.70;99.90;;;;;;5069838;28;20245;-79
2022/01/18 11:00:47;;;;;;;19.63;8.47;;;7.70;99.90;;;;;;5068677;28;20168;-74
2022/01/18 11:03:15;;;;;;;13.17;6.97;;;7.70;99.90;;;;;;5068615;28;20172;-77
2022/01/18 11:05:43;;;;;;;14.27;7.80;;;7.80;99.90;;;;;;5047829;28;20272;-78
2022/01/18 11:08:10;;;;;;;13.13;8.07;;;7.50;99.90;;;;;;5032753;28;20173;-80
2022/01/18 11:10:39;;;;;;;14.27;7.17;;;7.50;99.90;;;;;;5033056;28;20170;-75
2022/01/18 11:13:18;;;;;;;12.03;7.43;;;7.70;99.90;;;;;;5033660;28;20162;-75
2022/01/18 11:15:50;;;;;;;10.70;6.60;;;7.70;99.90;;;;;;5032197;28;20256;-74
2022/01/18 11:18:28;;;;;;;14.27;6.67;;;7.80;99.90;;;;;;5032752;28;20531;-79
2022/01/18 11:20:55;;;;;;;11.90;5.77;;;7.80;99.90;;;;;;5037406;28;20223;-79
2022/01/18 11:23:22;;;;;;;9.63;5.60;;;8.00;99.90;;;;;;5019131;28;20338;-79
2022/01/18 11:25:49;;;;;;;9.50;5.07;;;7.60;99.90;;;;;;5035465;28;20207;-79
2022/01/18 11:28:16;;;;;;;13.93;5.70;;;7.70;99.90;;;;;;5003018;28;20197;-80
2022/01/18 11:30:45;;;;;;;13.17;6.07;;;7.50;99.90;;;;;;5035594;28;20294;-79
2022/01/18 11:33:16;;;;;;;11.83;5.20;;;7.60;99.90;;;;;;5018719;28;20177;-80
2022/01/18 11:35:58;;;;;;;7.50;4.73;;;7.70;99.90;;;;;;5018864;28;20181;-74
2022/01/18 11:38:52;;;;;;;12.47;5.83;;;7.80;99.90;;;;;;5053290;28;20196;-75
2022/01/18 11:41:38;;;;;;;9.67;4.97;;;7.90;99.90;;;;;;5035111;28;20639;-77
2022/01/18 11:44:27;;;;;;;7.97;4.83;;;7.90;99.90;;;;;;5035072;28;20223;-77
2022/01/18 11:46:55;;;;;;;8.07;5.20;;;8.20;99.90;;;;;;5035812;28;20211;-80
2022/01/18 11:49:28;;;;;;;7.87;4.57;;;8.40;99.90;;;;;;5019927;28;20201;-75
2022/01/18 11:51:58;;;;;;;12.53;5.40;;;8.70;99.90;;;;;;5052405;28;20187;-80
2022/01/18 11:54:34;;;;;;;9.10;5.50;;;8.70;99.90;;;;;;5035118;28;20200;-76
2022/01/18 11:57:01;;;;;;;9.90;5.67;;;9.00;99.90;;;;;;5019251;28;20227;-75
2022/01/18 11:59:39;;;;;;;7.53;4.67;;;8.80;99.90;;;;;;5035534;28;20239;-77
2022/01/18 12:02:06;;;;;;;7.60;4.33;;;9.10;99.90;;;;;;5018869;28;20183;-78
2022/01/18 12:07:30;;;;;;;9.73;4.87;;;8.80;99.90;;;;;;5050846;28;20180;-75
2022/01/18 12:09:57;;;;;;;8.17;4.60;;;8.70;99.90;;;;;;5034625;28;20185;-79
2022/01/18 12:12:41;;;;;;;13.50;7.13;;;8.60;99.90;;;;;;5052703;28;20169;-78
2022/01/18 12:15:16;;;;;;;9.40;6.10;;;8.40;99.90;;;;;;5037139;28;20194;-73
2022/01/18 12:18:01;;;;;;;10.93;5.17;;;8.30;99.90;;;;;;5044055;28;20529;-80
2022/01/18 12:20:45;;;;;;;9.03;5.10;;;8.20;99.90;;;;;;5053441;28;20231;-77
2022/01/18 12:23:17;;;;;;;8.57;4.50;;;8.20;99.90;;;;;;5035582;28;20276;-76
2022/01/18 12:34:32;;;;;;;6.90;4.13;;;8.20;99.90;;;;;;5069588;28;20512;-78
2022/01/18 12:37:24;;;;;;;6.20;3.83;;;8.10;99.90;;;;;;5070732;28;20524;-78
2022/01/18 12:39:50;;;;;;;7.10;4.07;;;8.10;99.90;;;;;;5052795;28;20204;-74
2022/01/18 12:45:05;;;;;;;7.77;3.90;;;8.30;99.90;;;;;;5069638;28;20234;-76
2022/01/18 12:47:35;;;;;;;11.77;6.37;;;8.30;99.90;;;;;;5070652;28;20173;-74
2022/01/18 12:50:03;;;;;;;5.00;3.73;;;8.20;99.90;;;;;;5070329;28;20183;-74
2022/01/18 12:53:00;;;;;;;11.67;4.97;;;8.20;99.90;;;;;;5071903;28;20238;-79
2022/01/18 12:55:42;;;;;;;6.47;4.13;;;8.10;99.90;;;;;;5053701;28;20181;-75
2022/01/18 12:58:12;;;;;;;6.00;3.83;;;8.20;99.90;;;;;;5071516;28;20188;-75
2022/01/18 13:00:40;;;;;;;6.37;3.13;;;8.20;99.90;;;;;;5054105;28;20191;-75
2022/01/18 13:03:07;;;;;;;5.40;2.73;;;8.30;99.90;;;;;;5071940;28;20601;-78
2022/01/18 13:05:44;;;;;;;5.73;2.87;;;8.20;99.90;;;;;;5034185;28;20863;-74
2022/01/18 13:08:12;;;;;;;4.83;2.63;;;8.20;99.90;;;;;;5014225;28;20177;-78
2022/01/18 13:10:44;;;;;;;7.27;2.57;;;8.10;99.90;;;;;;5013899;28;20390;-74
2022/01/18 13:13:13;;;;;;;7.70;3.90;;;8.30;99.90;;;;;;5030404;28;20170;-78
2022/01/18 13:26:38;;;;;;;4.83;2.70;;;8.10;99.90;;;;;;5049889;28;20203;-77
2022/01/18 13:29:13;;;;;;;4.40;2.57;;;8.20;99.90;;;;;;5049414;28;20173;-75
2022/01/18 13:31:42;;;;;;;4.93;2.80;;;8.20;99.90;;;;;;5033123;28;20177;-74
2022/01/18 13:34:12;;;;;;;3.33;1.80;;;8.30;99.90;;;;;;5033493;28;20177;-78
2022/01/18 13:36:47;;;;;;;5.60;1.93;;;8.20;99.90;;;;;;5033460;28;20188;-78
2022/01/18 13:39:29;;;;;;;5.87;2.23;;;8.10;99.90;;;;;;5034896;28;20287;-79
2022/01/18 13:41:56;;;;;;;4.57;2.07;;;8.00;99.90;;;;;;5018432;28;20177;-74
2022/01/18 13:44:22;;;;;;;4.30;1.67;;;7.70;99.90;;;;;;5050215;28;20184;-77
2022/01/18 13:46:48;;;;;;;7.00;3.17;;;7.90;99.90;;;;;;5049997;28;20582;-78
2022/01/18 13:49:14;;;;;;;6.70;3.07;;;8.30;99.90;;;;;;5032916;28;20177;-76
2022/01/18 13:51:58;;;;;;;4.80;2.40;;;8.30;99.90;;;;;;5049933;28;20202;-80
2022/01/18 13:54:28;;;;;;;6.23;2.33;;;8.40;99.90;;;;;;5049509;28;20177;-74
2022/01/18 13:56:55;;;;;;;4.10;2.10;;;8.70;99.90;;;;;;5033340;28;20566;-79
2022/01/18 13:59:26;;;;;;;4.27;2.03;;;8.80;99.90;;;;;;5033928;28;20295;-80
2022/01/18 14:01:52;;;;;;;3.30;1.73;;;9.00;99.90;;;;;;5050809;28;20181;-76
2022/01/18 14:04:23;;;;;;;2.70;1.70;;;9.10;99.90;;;;;;5033102;28;20181;-79
2022/01/18 14:06:51;;;;;;;4.60;2.10;;;9.20;99.90;;;;;;5021828;28;20636;-81
2022/01/18 14:09:22;;;;;;;3.47;2.13;;;9.00;99.90;;;;;;5013290;28;20710;-81
2022/01/18 14:11:50;;;;;;;3.00;1.83;;;9.00;99.90;;;;;;5013293;28;20178;-76
2022/01/18 14:14:22;;;;;;;4.40;2.00;;;8.90;99.90;;;;;;4997724;28;20185;-79
2022/01/18 14:16:48;;;;;;;4.90;1.60;;;8.90;99.90;;;;;;5017796;28;20964;-74
2022/01/18 14:19:31;;;;;;;2.53;1.50;;;8.90;99.90;;;;;;5049416;28;20571;-74
2022/01/18 14:22:01;;;;;;;3.13;1.77;;;9.00;99.90;;;;;;5033424;28;20169;-74
2022/01/18 14:24:35;;;;;;;10.87;3.07;;;9.00;99.90;;;;;;5016103;28;20260;-75
2022/01/18 14:27:06;;;;;;;9.17;4.20;;;8.90;99.90;;;;;;5048996;28;20168;-79
2022/01/18 14:29:44;;;;;;;2.93;1.80;;;8.80;99.90;;;;;;5034256;28;20722;-74
2022/01/18 14:32:13;;;;;;;2.67;1.50;;;8.90;99.90;;;;;;5068686;28;20225;-75
2022/01/18 14:34:47;;;;;;;2.90;1.43;;;8.90;99.90;;;;;;5068780;28;20161;-74
2022/01/18 14:37:14;;;;;;;2.97;1.60;;;8.90;99.90;;;;;;5051976;28;20180;-79
2022/01/18 14:40:01;;;;;;;2.83;1.57;;;8.80;99.90;;;;;;5035411;28;20204;-79